Time;durP1;ratioP1;P1;durP2;ratioP2;P2;SDS_P1;SDS_P2;PMS_P1;PMS_P2;Temp;Humidity;BMP_temperature;BMP_pressure;BME280_temperature;BME280_humidity;BME280_pressure;Samples;Min_cycle;Max_cycle;Signal;HPM_P1;HPM_P2
2022/04/15 00:00:41;;;;;;;8.65;5.75;;;14.80;47.40;;;;;;4976478;28;20493;-86
2022/04/15 00:03:07;;;;;;;9.98;5.80;;;14.90;47.10;;;;;;4976527;28;20541;-85
2022/04/15 00:05:36;;;;;;;13.93;5.55;;;14.90;47.30;;;;;;4976388;28;20027;-84
2022/04/15 00:08:10;;;;;;;8.98;5.35;;;14.90;46.90;;;;;;4975988;28;20122;-84
2022/04/15 00:10:39;;;;;;;9.27;5.78;;;14.90;47.30;;;;;;4977754;28;20078;-85
2022/04/15 00:13:08;;;;;;;11.32;6.45;;;14.90;47.10;;;;;;4976195;28;20019;-84
2022/04/15 00:15:34;;;;;;;9.75;5.75;;;14.80;47.60;;;;;;4976486;28;20442;-83
2022/04/15 00:18:00;;;;;;;9.23;5.72;;;14.70;47.80;;;;;;4976666;28;20469;-83
2022/04/15 00:20:29;;;;;;;9.50;5.68;;;14.50;47.50;;;;;;4976079;28;20497;-84
2022/04/15 00:22:58;;;;;;;9.07;5.80;;;14.20;48.40;;;;;;4976080;28;20023;-83
2022/04/15 00:25:25;;;;;;;9.93;5.93;;;14.00;48.40;;;;;;4976683;28;20031;-84
2022/04/15 00:27:51;;;;;;;14.27;5.55;;;14.00;48.80;;;;;;4976183;28;20513;-84
2022/04/15 00:30:17;;;;;;;8.20;5.32;;;14.00;49.10;;;;;;4977155;28;20048;-83
2022/04/15 00:32:43;;;;;;;11.65;5.00;;;14.30;48.70;;;;;;4977336;28;20491;-82
2022/04/15 00:35:09;;;;;;;9.02;5.25;;;13.80;48.80;;;;;;4976083;28;20050;-82
2022/04/15 00:37:35;;;;;;;8.68;5.22;;;13.40;49.60;;;;;;4976255;28;20054;-83
2022/04/15 00:40:02;;;;;;;8.60;5.20;;;13.50;49.70;;;;;;4975893;28;20104;-82
2022/04/15 00:42:29;;;;;;;8.50;5.43;;;13.60;50.00;;;;;;4976100;28;20093;-83
2022/04/15 00:45:00;;;;;;;10.68;6.00;;;12.90;51.00;;;;;;4975949;28;20031;-83
2022/04/15 00:47:25;;;;;;;10.25;5.45;;;12.70;52.00;;;;;;4975991;28;20105;-83
2022/04/15 00:49:51;;;;;;;9.15;5.65;;;13.10;50.80;;;;;;4975549;28;20133;-84
2022/04/15 00:52:21;;;;;;;8.27;5.22;;;13.40;50.30;;;;;;4976049;28;20037;-84
2022/04/15 00:54:51;;;;;;;10.50;5.68;;;13.60;50.10;;;;;;4977063;28;20051;-84
2022/04/15 00:57:22;;;;;;;9.75;6.13;;;13.90;49.40;;;;;;4976738;28;20033;-84
2022/04/15 00:59:51;;;;;;;16.00;6.25;;;14.00;49.40;;;;;;4975827;28;20030;-83
2022/04/15 01:02:18;;;;;;;9.75;5.80;;;14.10;49.00;;;;;;4975242;28;20031;-84
2022/04/15 01:04:44;;;;;;;13.02;6.32;;;14.30;48.50;;;;;;4976734;28;20027;-85
2022/04/15 01:07:14;;;;;;;8.77;5.70;;;14.20;48.20;;;;;;4975213;28;20027;-84
2022/04/15 01:09:43;;;;;;;10.35;5.72;;;13.70;49.10;;;;;;4975270;28;20066;-84
2022/04/15 01:12:10;;;;;;;12.52;7.55;;;13.70;49.20;;;;;;4975284;28;20493;-83
2022/04/15 01:14:39;;;;;;;10.82;6.10;;;13.60;49.30;;;;;;4976615;28;20031;-83
2022/04/15 01:17:14;;;;;;;8.43;5.60;;;13.50;49.20;;;;;;4975338;28;20023;-83
2022/04/15 01:19:41;;;;;;;10.60;5.88;;;13.30;50.00;;;;;;4975390;28;20077;-83
2022/04/15 01:22:11;;;;;;;9.40;5.60;;;13.20;49.90;;;;;;4975338;28;20394;-82
2022/04/15 01:24:38;;;;;;;11.70;6.35;;;13.20;50.20;;;;;;4976144;28;20031;-83
2022/04/15 01:27:07;;;;;;;10.73;6.18;;;13.40;50.40;;;;;;4974642;28;20027;-83
2022/04/15 01:29:40;;;;;;;9.90;6.25;;;13.50;50.00;;;;;;4974518;28;20038;-84
2022/04/15 01:32:07;;;;;;;10.73;5.85;;;13.70;50.40;;;;;;4975702;28;20038;-84
2022/04/15 01:34:34;;;;;;;11.05;6.43;;;13.80;50.00;;;;;;4975469;28;20042;-84
2022/04/15 01:37:00;;;;;;;10.55;6.38;;;13.80;49.30;;;;;;4974646;28;20023;-84
2022/04/15 01:39:36;;;;;;;11.57;6.47;;;13.80;49.20;;;;;;4975755;28;20073;-84
2022/04/15 01:42:03;;;;;;;10.15;6.03;;;14.00;49.00;;;;;;4975233;28;20062;-85
2022/04/15 01:44:29;;;;;;;10.60;6.07;;;14.00;48.80;;;;;;4974105;28;20031;-84
2022/04/15 01:46:54;;;;;;;9.38;6.18;;;13.90;49.10;;;;;;4974561;28;20030;-83
2022/04/15 01:49:20;;;;;;;9.52;6.20;;;13.50;49.10;;;;;;4975055;28;20386;-84
2022/04/15 01:51:45;;;;;;;11.10;6.38;;;13.40;49.80;;;;;;4974660;28;20045;-81
2022/04/15 01:54:11;;;;;;;10.35;5.75;;;13.10;50.10;;;;;;4975870;28;20039;-81
2022/04/15 01:56:37;;;;;;;10.00;6.00;;;12.70;50.60;;;;;;4974347;28;20026;-84
2022/04/15 01:59:04;;;;;;;11.95;7.05;;;12.80;51.10;;;;;;4974625;28;20030;-83
2022/04/15 02:01:30;;;;;;;11.02;6.65;;;12.80;51.50;;;;;;4974351;28;20435;-83
2022/04/15 02:03:55;;;;;;;11.25;6.30;;;13.10;51.20;;;;;;4974384;28;20165;-81
2022/04/15 02:06:21;;;;;;;9.90;6.50;;;13.30;51.20;;;;;;4974480;28;20027;-80
2022/04/15 02:08:47;;;;;;;12.40;6.68;;;13.40;50.80;;;;;;4974342;28;20378;-81
2022/04/15 02:11:12;;;;;;;10.73;6.30;;;13.20;50.50;;;;;;4973908;28;20035;-81
2022/04/15 02:13:38;;;;;;;11.43;6.10;;;13.40;50.80;;;;;;4975429;28;20067;-81
2022/04/15 02:16:04;;;;;;;10.23;6.15;;;13.10;52.70;;;;;;4975313;28;20027;-82
2022/04/15 02:18:30;;;;;;;12.25;6.38;;;12.70;53.70;;;;;;4975299;28;20022;-81
2022/04/15 02:20:55;;;;;;;11.23;6.25;;;12.70;51.90;;;;;;4976782;28;20034;-82
2022/04/15 02:23:21;;;;;;;11.23;6.97;;;12.50;51.50;;;;;;4977323;28;20085;-82
2022/04/15 02:25:47;;;;;;;11.20;6.72;;;12.20;52.60;;;;;;4977675;28;20116;-81
2022/04/15 02:28:12;;;;;;;12.45;6.80;;;12.10;53.90;;;;;;4977284;28;20377;-81
2022/04/15 02:30:38;;;;;;;11.98;6.65;;;12.20;54.60;;;;;;4976839;28;20145;-81
2022/04/15 02:33:04;;;;;;;12.40;6.53;;;12.50;53.80;;;;;;4977073;28;20125;-81
2022/04/15 02:35:29;;;;;;;13.05;6.38;;;12.80;53.80;;;;;;4994423;28;20109;-83
2022/04/15 02:37:55;;;;;;;10.73;6.05;;;13.10;53.50;;;;;;4994025;28;20058;-82
2022/04/15 02:40:21;;;;;;;13.13;6.28;;;13.40;52.10;;;;;;4977266;28;20076;-85
2022/04/15 02:42:46;;;;;;;10.98;6.20;;;13.40;51.30;;;;;;4994064;28;20041;-81
2022/04/15 02:45:12;;;;;;;11.63;6.93;;;13.20;51.50;;;;;;4994292;28;20053;-81
2022/04/15 02:47:39;;;;;;;10.73;7.03;;;13.30;51.50;;;;;;4981056;28;20026;-84
2022/04/15 02:50:05;;;;;;;12.60;6.60;;;13.60;51.30;;;;;;4998296;28;20041;-83
2022/04/15 02:52:34;;;;;;;10.43;6.53;;;13.60;51.20;;;;;;4981387;28;20105;-81
2022/04/15 02:54:59;;;;;;;11.13;7.00;;;13.50;50.70;;;;;;4998711;28;20037;-81
2022/04/15 02:57:25;;;;;;;17.98;8.02;;;13.50;50.70;;;;;;4998374;28;20409;-83
2022/04/15 02:59:51;;;;;;;16.15;9.25;;;13.60;50.50;;;;;;4998197;28;20034;-81
2022/04/15 03:02:16;;;;;;;14.35;8.23;;;13.80;50.20;;;;;;4998008;28;20030;-80
2022/04/15 03:04:42;;;;;;;17.27;8.95;;;13.60;50.30;;;;;;4980994;28;20030;-80
2022/04/15 03:07:08;;;;;;;17.60;10.05;;;13.50;50.50;;;;;;4981147;28;20537;-82
2022/04/15 03:09:33;;;;;;;17.98;9.75;;;13.40;50.50;;;;;;4980541;28;20034;-82
2022/04/15 03:11:59;;;;;;;15.23;8.15;;;13.40;50.80;;;;;;4980508;28;20026;-80
2022/04/15 03:14:25;;;;;;;18.17;8.35;;;13.50;50.90;;;;;;4998002;28;20034;-82
2022/04/15 03:16:50;;;;;;;13.63;8.00;;;13.50;50.80;;;;;;4980891;28;20076;-85
2022/04/15 03:19:16;;;;;;;14.32;8.32;;;13.50;50.70;;;;;;4997767;28;20050;-82
2022/04/15 03:21:42;;;;;;;13.70;7.90;;;13.50;50.60;;;;;;4997543;28;20034;-84
2022/04/15 03:24:08;;;;;;;10.68;6.25;;;13.40;50.60;;;;;;4980314;28;20022;-82
2022/04/15 03:26:34;;;;;;;11.50;6.78;;;13.20;51.50;;;;;;4980440;28;20034;-81
2022/04/15 03:28:59;;;;;;;11.43;6.70;;;13.10;52.10;;;;;;4979787;28;20073;-81
2022/04/15 03:31:25;;;;;;;12.57;7.13;;;13.00;51.40;;;;;;4980360;28;20042;-82
2022/04/15 03:33:51;;;;;;;13.15;6.78;;;13.00;51.20;;;;;;4980731;28;20128;-82
2022/04/15 03:36:20;;;;;;;14.00;7.13;;;13.00;51.50;;;;;;4997505;28;20070;-81
2022/04/15 03:38:45;;;;;;;12.38;7.10;;;13.10;51.20;;;;;;4980074;28;20032;-82
2022/04/15 03:41:11;;;;;;;15.93;6.55;;;13.30;51.20;;;;;;4980100;28;20022;-82
2022/04/15 03:43:37;;;;;;;10.35;6.53;;;13.10;51.10;;;;;;4980058;28;20058;-82
2022/04/15 03:46:03;;;;;;;10.85;6.82;;;13.10;51.30;;;;;;4979755;28;20019;-84
2022/04/15 03:48:28;;;;;;;11.20;6.25;;;13.10;51.20;;;;;;4979827;28;20035;-81
2022/04/15 03:50:54;;;;;;;11.48;5.63;;;12.90;51.20;;;;;;4979868;28;20093;-84
2022/04/15 03:53:20;;;;;;;9.82;5.80;;;12.60;51.80;;;;;;4979500;28;20473;-81
2022/04/15 03:55:46;;;;;;;9.18;5.50;;;12.60;52.60;;;;;;4979962;28;20125;-81
2022/04/15 03:58:13;;;;;;;9.75;5.72;;;12.90;51.70;;;;;;4978711;28;20113;-83
2022/04/15 04:00:39;;;;;;;11.07;5.78;;;12.90;51.30;;;;;;4980144;28;20129;-83
2022/04/15 04:03:05;;;;;;;12.52;6.30;;;12.60;51.60;;;;;;4979658;28;20114;-84
2022/04/15 04:05:31;;;;;;;10.10;6.05;;;12.30;51.80;;;;;;4997133;28;20034;-84
2022/04/15 04:07:56;;;;;;;9.82;5.63;;;12.30;52.30;;;;;;4979757;28;20029;-82
2022/04/15 04:10:22;;;;;;;12.00;5.82;;;12.60;52.00;;;;;;4979949;28;20129;-81
2022/04/15 04:12:48;;;;;;;12.10;6.28;;;12.80;52.10;;;;;;4979888;28;20062;-81
2022/04/15 04:15:15;;;;;;;10.60;5.78;;;12.90;52.10;;;;;;4979595;28;20025;-81
2022/04/15 04:17:41;;;;;;;9.40;5.85;;;12.90;51.00;;;;;;4979360;28;20034;-83
2022/04/15 04:20:12;;;;;;;11.93;5.78;;;12.70;51.50;;;;;;4995868;28;20045;-81
2022/04/15 04:22:39;;;;;;;12.18;5.88;;;12.50;51.60;;;;;;4996465;28;20022;-82
2022/04/15 04:25:09;;;;;;;12.57;6.35;;;12.60;52.00;;;;;;4978651;28;20050;-82
2022/04/15 04:47:35;;;;;;;10.43;5.13;;;13.10;51.90;;;;;;4899268;29;19982;-81
2022/04/15 04:50:01;;;;;;;10.35;5.47;;;13.20;51.90;;;;;;4883683;29;20067;-81
2022/04/15 04:52:32;;;;;;;12.15;5.60;;;13.20;51.90;;;;;;4897170;29;20461;-82
2022/04/15 04:55:02;;;;;;;10.65;6.03;;;13.10;52.30;;;;;;4894987;29;20042;-79
2022/04/15 04:57:33;;;;;;;12.05;5.70;;;12.70;53.50;;;;;;4893255;29;20381;-81
2022/04/15 05:00:23;;;;;;;;;;;12.60;54.10;;;;;;4898099;29;20040;-81
2022/04/15 05:13:04;;;;;;;9.20;5.57;;;14.40;50.90;;;;;;5054171;28;20140;-81
2022/04/15 05:15:36;;;;;;;10.48;6.13;;;14.50;50.40;;;;;;5046591;28;20337;-81
2022/04/15 05:21:26;;;;;;;12.85;6.35;;;15.00;49.40;;;;;;5054868;28;20024;-84
2022/04/15 05:24:35;;;;;;;13.65;6.15;;;15.10;49.00;;;;;;5054761;28;20025;-83
2022/04/15 06:11:15;;;;;;;24.17;10.88;;;16.40;48.30;;;;;;4663720;28;10002225;-81
2022/04/15 06:27:30;;;;;;;16.10;7.00;;;17.80;47.60;;;;;;4991736;28;20073;-84
2022/04/15 06:29:59;;;;;;;25.65;7.75;;;18.70;46.70;;;;;;4975808;28;20042;-85
2022/04/15 06:32:52;;;;;;;20.13;6.68;;;18.70;45.20;;;;;;4972379;28;20042;-82
2022/04/15 06:35:17;;;;;;;13.25;6.60;;;18.00;47.00;;;;;;4959727;28;20030;-84
2022/04/15 06:37:43;;;;;;;19.00;6.28;;;18.30;45.10;;;;;;4972248;28;20041;-83
2022/04/15 06:40:10;;;;;;;14.75;6.53;;;18.80;44.30;;;;;;4972182;28;20027;-82
2022/04/15 06:42:35;;;;;;;13.73;6.60;;;18.60;43.80;;;;;;4972494;28;20027;-85
2022/04/15 06:45:52;;;;;;;14.48;6.38;;;18.50;45.30;;;;;;4972333;28;20030;-84
2022/04/15 06:48:22;;;;;;;18.85;9.60;;;19.20;44.40;;;;;;4895023;29;20037;-84
2022/04/15 06:54:17;;;;;;;15.30;6.75;;;18.30;46.30;;;;;;5270067;22;20128;-86
2022/04/15 06:57:10;;;;;;;23.02;11.77;;;18.90;43.60;;;;;;4999900;28;20121;-85
2022/04/15 06:59:55;;;;;;;25.75;12.13;;;19.90;44.00;;;;;;5008530;28;20034;-86
2022/04/15 07:02:20;;;;;;;25.15;11.38;;;20.70;41.80;;;;;;4992440;28;20084;-82
2022/04/15 07:04:46;;;;;;;19.08;10.35;;;21.10;40.70;;;;;;4991558;28;20109;-84
2022/04/15 07:21:06;;;;;;;18.98;10.45;;;23.00;40.30;;;;;;4991939;28;20050;-82
2022/04/15 07:23:31;;;;;;;17.10;8.18;;;22.90;41.00;;;;;;4978155;28;20477;-83
2022/04/15 07:26:03;;;;;;;16.23;8.50;;;23.20;41.50;;;;;;4993813;28;20034;-85
2022/04/15 07:44:12;;;;;;;17.00;8.65;;;22.90;41.40;;;;;;4995356;28;20097;-82
2022/04/15 07:50:39;;;;;;;17.00;7.18;;;22.60;41.60;;;;;;4955001;29;20057;-81
2022/04/15 07:54:13;;;;;;;10.23;6.53;;;22.80;42.20;;;;;;4954342;29;20134;-81
2022/04/15 07:56:38;;;;;;;11.13;5.95;;;23.10;41.90;;;;;;4879152;29;20043;-83
2022/04/15 07:59:04;;;;;;;22.92;10.65;;;23.50;40.80;;;;;;4880118;29;20044;-82
2022/04/15 08:01:31;;;;;;;81.75;35.17;;;23.80;40.20;;;;;;4880064;29;20141;-84
2022/04/15 08:03:58;;;;;;;73.82;35.15;;;23.90;39.70;;;;;;4880052;29;20197;-86
2022/04/15 08:16:24;;;;;;;25.42;9.40;;;23.10;39.80;;;;;;4843668;29;20140;-83
2022/04/15 08:19:28;;;;;;;;;;;;;;;;;;;;;
2022/04/15 08:21:56;;;;;;;13.90;7.13;;;23.00;39.90;;;;;;4843207;29;20038;-83
2022/04/15 08:24:22;;;;;;;16.52;7.63;;;23.10;39.30;;;;;;4858420;29;20419;-82
2022/04/15 08:26:49;;;;;;;11.30;7.03;;;22.80;39.70;;;;;;4860903;29;20085;-81
2022/04/15 08:33:33;;;;;;;15.95;8.68;;;22.80;40.20;;;;;;4889145;29;20131;-82
2022/04/15 08:36:48;;;;;;;15.73;7.35;;;22.60;38.80;;;;;;4861176;29;20043;-84
2022/04/15 08:39:29;;;;;;;17.92;9.02;;;22.70;39.20;;;;;;4861123;29;20481;-83
2022/04/15 08:45:25;;;;;;;11.32;6.18;;;22.70;38.00;;;;;;4861263;29;20056;-83
2022/04/15 08:47:57;;;;;;;9.10;6.22;;;22.60;37.80;;;;;;4878679;29;20033;-83
2022/04/15 08:50:28;;;;;;;13.18;6.28;;;22.50;38.30;;;;;;4878784;29;20136;-83
2022/04/15 08:52:54;;;;;;;8.25;5.30;;;22.40;38.50;;;;;;4879266;29;20048;-82
2022/04/15 08:55:32;;;;;;;11.63;5.97;;;22.40;39.20;;;;;;4879289;29;20033;-83
2022/04/15 08:58:07;;;;;;;11.13;6.13;;;22.50;39.90;;;;;;4879164;29;20556;-83
2022/04/15 09:00:46;;;;;;;10.32;5.72;;;22.50;40.90;;;;;;4879672;29;20089;-83
2022/04/15 09:03:25;;;;;;;9.05;6.15;;;22.70;41.10;;;;;;4879216;29;20094;-82
2022/04/15 09:06:21;;;;;;;9.65;5.78;;;22.70;41.30;;;;;;4879542;29;20582;-82
2022/04/15 09:09:31;;;;;;;9.93;5.57;;;22.70;39.80;;;;;;4879521;29;20036;-83
2022/04/15 09:12:00;;;;;;;11.65;5.93;;;23.20;38.60;;;;;;4867592;29;20501;-82
2022/04/15 09:14:54;;;;;;;11.48;6.40;;;23.60;39.10;;;;;;4919781;29;20071;-84
2022/04/15 09:20:33;;;;;;;31.23;14.45;;;23.90;38.40;;;;;;4935611;29;20578;-83
2022/04/15 09:26:18;;;;;;;43.67;25.40;;;24.40;36.90;;;;;;4896306;29;20040;-83
2022/04/15 09:29:28;;;;;;;41.63;20.50;;;24.40;36.30;;;;;;4881768;29;20041;-83
2022/04/15 09:42:26;;;;;;;12.13;7.18;;;25.10;36.20;;;;;;4878560;29;20080;-84
2022/04/15 09:48:39;;;;;;;19.42;6.30;;;25.10;36.50;;;;;;4874560;29;20063;-85
2022/04/15 09:51:05;;;;;;;;;;;25.30;36.10;;;;;;4878979;29;20052;-85
2022/04/15 09:54:18;;;;;;;36.92;15.90;;;25.40;35.70;;;;;;4878304;29;19914;-82
2022/04/15 09:56:46;;;;;;;25.83;10.48;;;25.30;36.00;;;;;;4889697;29;20392;-82
2022/04/15 10:10:04;;;;;;;29.15;13.32;;;25.20;36.80;;;;;;4859388;29;20056;-84
2022/04/15 10:13:03;;;;;;;25.90;12.73;;;25.50;37.10;;;;;;4858901;29;20030;-84
2022/04/15 10:18:48;;;;;;;71.68;30.45;;;26.10;36.40;;;;;;4875800;29;20033;-83
2022/04/15 10:21:22;;;;;;;51.50;25.38;;;27.40;36.80;;;;;;4861255;29;20056;-83
2022/04/15 10:23:48;;;;;;;24.75;12.93;;;27.90;36.00;;;;;;4915951;22;20046;-81
2022/04/15 10:26:40;;;;;;;18.45;9.50;;;28.30;35.10;;;;;;4993493;28;20523;-83
2022/04/15 10:34:02;;;;;;;10.95;6.13;;;30.10;34.60;;;;;;4914583;29;20092;-82
2022/04/15 10:37:17;;;;;;;10.55;5.80;;;30.90;33.50;;;;;;4824608;29;20042;-82
2022/04/15 10:39:57;;;;;;;16.88;9.50;;;31.20;33.70;;;;;;4787970;29;20126;-82
2022/04/15 10:42:52;;;;;;;12.98;6.05;;;31.10;33.10;;;;;;4787956;29;20129;-83
2022/04/15 10:49:36;;;;;;;10.07;5.93;;;30.40;33.10;;;;;;4821067;29;20037;-82
2022/04/15 10:55:52;;;;;;;11.80;6.28;;;28.80;33.70;;;;;;4820645;29;20042;-80
2022/04/15 10:58:25;;;;;;;17.55;8.52;;;28.40;33.90;;;;;;4819710;29;20077;-81
2022/04/15 11:04:12;;;;;;;12.00;6.57;;;28.40;34.10;;;;;;4820084;29;20144;-80
2022/04/15 11:06:39;;;;;;;11.88;6.70;;;28.60;33.70;;;;;;4867257;29;20054;-79
2022/04/15 11:09:15;;;;;;;10.73;5.97;;;28.80;34.10;;;;;;4897728;29;20040;-79
2022/04/15 11:11:42;;;;;;;14.73;8.98;;;28.90;34.20;;;;;;4895782;29;20044;-76
2022/04/15 11:14:13;;;;;;;14.77;6.07;;;28.60;33.70;;;;;;4897679;29;20044;-80
2022/04/15 11:16:53;;;;;;;14.23;7.13;;;27.90;33.60;;;;;;4926810;28;20034;-79
2022/04/15 11:19:22;;;;;;;16.95;8.65;;;27.20;34.60;;;;;;4955427;28;20035;-82
2022/04/15 11:21:53;;;;;;;18.97;8.27;;;26.60;36.60;;;;;;4956649;28;20023;-80
2022/04/15 11:24:30;;;;;;;17.58;9.88;;;26.10;37.40;;;;;;4953900;28;20365;-81
2022/04/15 11:27:13;;;;;;;21.15;10.00;;;25.70;38.60;;;;;;5010348;28;20446;-81
2022/04/15 11:29:40;;;;;;;26.58;12.82;;;25.50;38.10;;;;;;5012693;28;20116;-80
2022/04/15 11:32:07;;;;;;;18.55;9.27;;;25.40;39.10;;;;;;5014508;28;20037;-83
2022/04/15 11:34:36;;;;;;;12.45;6.55;;;25.10;38.30;;;;;;5013725;28;20365;-81
2022/04/15 11:37:04;;;;;;;8.93;5.50;;;24.80;38.20;;;;;;4998578;28;20033;-80
2022/04/15 11:39:35;;;;;;;16.45;9.35;;;24.30;39.00;;;;;;5015232;28;20029;-79
2022/04/15 11:42:06;;;;;;;19.65;6.90;;;24.20;38.90;;;;;;5016804;28;20034;-78
2022/04/15 11:44:33;;;;;;;20.60;10.45;;;24.10;38.40;;;;;;5015991;28;20025;-81
2022/04/15 11:47:24;;;;;;;10.95;5.38;;;24.20;39.00;;;;;;5014895;28;20431;-80
2022/04/15 11:49:49;;;;;;;21.90;10.20;;;24.10;40.30;;;;;;5015722;28;20040;-82
2022/04/15 11:52:25;;;;;;;10.73;5.30;;;23.90;41.20;;;;;;5016196;28;20112;-80
2022/04/15 11:54:50;;;;;;;8.80;4.97;;;23.80;42.30;;;;;;5015231;28;20366;-81
2022/04/15 11:57:16;;;;;;;13.35;4.78;;;23.20;43.20;;;;;;5015186;28;20041;-80
2022/04/15 11:59:44;;;;;;;8.85;4.68;;;23.00;44.10;;;;;;5016148;28;20553;-80
2022/04/15 12:02:12;;;;;;;10.10;5.18;;;22.60;43.80;;;;;;5014527;28;20041;-82
2022/04/15 12:04:51;;;;;;;7.10;4.78;;;22.50;44.20;;;;;;5014826;28;20033;-81
2022/04/15 12:07:17;;;;;;;99.95;72.40;;;22.30;44.90;;;;;;5016303;28;20021;-83
2022/04/15 12:09:46;;;;;;;487.50;393.30;;;22.50;44.90;;;;;;5016213;28;20033;-83
2022/04/15 12:12:12;;;;;;;117.05;104.95;;;22.70;45.00;;;;;;5014120;28;20413;-82
2022/04/15 12:14:39;;;;;;;172.68;140.43;;;22.90;44.50;;;;;;5015692;28;20520;-83
2022/04/15 12:17:11;;;;;;;849.08;656.83;;;23.40;44.40;;;;;;5016020;28;20036;-83
2022/04/15 12:19:37;;;;;;;770.10;605.40;;;23.70;44.40;;;;;;5014318;28;20026;-82
2022/04/15 12:22:04;;;;;;;497.85;346.05;;;23.70;44.40;;;;;;5015552;28;20032;-81
2022/04/15 12:24:31;;;;;;;379.17;246.70;;;23.60;44.60;;;;;;5011723;28;20396;-78
2022/04/15 12:27:01;;;;;;;372.52;268.80;;;23.60;44.90;;;;;;4978748;28;20041;-79
2022/04/15 12:32:35;;;;;;;40.78;32.58;;;23.20;45.30;;;;;;4995599;28;20045;-81
2022/04/15 12:35:00;;;;;;;45.50;39.10;;;23.30;45.50;;;;;;4995909;28;20022;-79
2022/04/15 12:37:49;;;;;;;48.20;42.88;;;23.40;45.20;;;;;;4995603;28;20026;-82
2022/04/15 12:40:15;;;;;;;24.75;18.98;;;23.70;44.20;;;;;;4994187;28;20389;-81
2022/04/15 12:42:45;;;;;;;39.65;29.73;;;23.60;44.10;;;;;;4995474;28;20026;-81
2022/04/15 12:45:15;;;;;;;49.75;39.28;;;23.80;44.40;;;;;;4994602;28;20022;-80
2022/04/15 12:47:58;;;;;;;67.35;49.00;;;23.80;43.40;;;;;;4994826;28;20034;-80
2022/04/15 12:50:25;;;;;;;14.38;9.05;;;23.60;43.10;;;;;;4994708;28;20117;-80
2022/04/15 12:52:55;;;;;;;11.50;7.10;;;23.60;44.10;;;;;;4994153;28;20031;-79
2022/04/15 12:55:29;;;;;;;9.85;6.95;;;23.50;44.20;;;;;;4994350;28;20023;-83
2022/04/15 12:57:55;;;;;;;15.60;9.48;;;23.70;44.20;;;;;;4996020;28;20030;-82
2022/04/15 13:00:21;;;;;;;15.57;9.40;;;23.90;44.00;;;;;;4994602;28;20034;-84
2022/04/15 13:02:47;;;;;;;12.82;8.40;;;23.80;44.30;;;;;;4994575;28;20018;-82
2022/04/15 13:05:14;;;;;;;10.77;7.70;;;24.10;44.30;;;;;;4994150;28;20033;-83
2022/04/15 13:07:40;;;;;;;11.63;8.27;;;24.20;44.30;;;;;;4995512;28;20073;-83
2022/04/15 13:10:07;;;;;;;10.07;7.00;;;24.60;45.00;;;;;;4994033;28;20486;-83
2022/04/15 13:12:34;;;;;;;14.02;12.02;;;25.00;43.30;;;;;;4993835;28;20037;-84
2022/04/15 13:15:01;;;;;;;13.85;11.57;;;25.30;43.60;;;;;;4995373;28;20035;-84
2022/04/15 13:17:27;;;;;;;12.38;7.80;;;25.00;43.40;;;;;;4994082;28;20026;-82
2022/04/15 13:19:53;;;;;;;15.27;10.82;;;24.70;44.20;;;;;;4993874;28;20437;-83
2022/04/15 13:22:19;;;;;;;16.17;12.70;;;24.90;44.50;;;;;;4995533;28;20030;-82
2022/04/15 13:24:45;;;;;;;13.02;8.98;;;25.00;44.20;;;;;;4993241;28;20054;-84
2022/04/15 13:27:13;;;;;;;12.93;7.38;;;24.90;44.20;;;;;;4993382;28;20038;-83
2022/04/15 13:29:48;;;;;;;11.63;9.80;;;25.00;45.00;;;;;;4994638;28;20503;-83
2022/04/15 13:32:13;;;;;;;22.83;18.65;;;24.70;44.70;;;;;;4977499;28;20041;-82
2022/04/15 13:34:39;;;;;;;20.42;16.45;;;24.30;45.50;;;;;;4647100;28;10000485;-83
2022/04/15 13:37:07;;;;;;;15.73;11.20;;;24.10;45.80;;;;;;4993484;28;20362;-82
2022/04/15 13:39:35;;;;;;;21.88;9.55;;;24.20;46.50;;;;;;4994821;28;20470;-83
2022/04/15 13:42:01;;;;;;;29.52;19.80;;;24.40;45.80;;;;;;4994734;28;20018;-83
2022/04/15 13:44:27;;;;;;;19.13;12.65;;;24.50;46.00;;;;;;4994732;28;20455;-83
2022/04/15 13:46:54;;;;;;;11.63;8.40;;;24.50;45.80;;;;;;4993248;28;20019;-84
2022/04/15 13:49:19;;;;;;;18.60;13.52;;;24.30;45.80;;;;;;4977529;28;20121;-82
2022/04/15 13:51:45;;;;;;;13.05;9.60;;;24.20;46.50;;;;;;4993382;28;20129;-82
2022/04/15 13:56:56;;;;;;;42.38;20.63;;;24.40;46.20;;;;;;4994925;28;20076;-84
2022/04/15 13:59:22;;;;;;;11.55;7.47;;;24.80;46.70;;;;;;4994891;28;20030;-85
2022/04/15 14:01:47;;;;;;;10.75;6.95;;;24.90;45.70;;;;;;4977705;28;20030;-84
2022/04/15 14:04:15;;;;;;;11.13;7.25;;;25.20;45.60;;;;;;4994828;28;20030;-82
2022/04/15 14:06:46;;;;;;;19.65;12.15;;;25.60;45.30;;;;;;4993647;28;20022;-83
2022/04/15 14:09:14;;;;;;;34.85;15.50;;;26.10;45.40;;;;;;4994509;28;20030;-82
2022/04/15 14:11:43;;;;;;;32.80;16.17;;;26.00;45.40;;;;;;4993241;28;20038;-83
2022/04/15 14:14:13;;;;;;;12.07;7.72;;;25.90;45.60;;;;;;4993376;28;20030;-82
2022/04/15 14:16:42;;;;;;;12.88;7.65;;;25.20;45.30;;;;;;4994392;28;20023;-87
2022/04/15 14:19:12;;;;;;;16.45;8.02;;;24.80;46.10;;;;;;4992756;28;20510;-83
2022/04/15 14:21:40;;;;;;;13.50;8.20;;;24.80;46.70;;;;;;4992893;28;20034;-84
2022/04/15 14:24:07;;;;;;;11.73;8.13;;;24.90;46.50;;;;;;4992990;28;20046;-84
2022/04/15 14:26:36;;;;;;;12.82;8.00;;;25.00;46.10;;;;;;4989996;28;20050;-84
2022/04/15 14:29:03;;;;;;;15.25;8.90;;;24.80;46.40;;;;;;4990158;28;20038;-82
2022/04/15 14:31:29;;;;;;;13.93;8.48;;;25.00;47.00;;;;;;4989822;28;20129;-82
2022/04/15 14:33:54;;;;;;;13.02;8.13;;;25.10;45.80;;;;;;4989771;28;20026;-81
2022/04/15 14:36:22;;;;;;;21.45;13.00;;;25.30;46.40;;;;;;4989140;28;20034;-82
2022/04/15 14:38:48;;;;;;;25.33;14.50;;;25.30;46.20;;;;;;4973368;28;20375;-83
2022/04/15 14:41:14;;;;;;;15.68;9.30;;;25.50;46.20;;;;;;4989656;28;20121;-82
2022/04/15 14:43:42;;;;;;;21.17;12.30;;;25.50;45.90;;;;;;4974002;28;20027;-83
2022/04/15 14:46:09;;;;;;;15.93;10.60;;;25.10;46.70;;;;;;4974038;28;20418;-83
2022/04/15 14:48:35;;;;;;;31.80;21.58;;;25.10;46.50;;;;;;4974476;28;20047;-82
2022/04/15 14:51:03;;;;;;;21.05;11.70;;;25.50;46.20;;;;;;4989271;28;20038;-83
2022/04/15 14:53:32;;;;;;;13.35;7.30;;;25.80;46.30;;;;;;4988247;28;20015;-81
2022/04/15 14:55:58;;;;;;;10.73;7.20;;;25.60;46.10;;;;;;4988416;28;20034;-81
2022/04/15 14:58:25;;;;;;;12.95;6.20;;;25.70;46.50;;;;;;4989353;28;20034;-81
2022/04/15 15:00:54;;;;;;;9.88;6.35;;;25.70;46.30;;;;;;4974381;28;20027;-81
2022/04/15 15:03:22;;;;;;;12.73;6.60;;;25.50;46.40;;;;;;4995320;28;20019;-79
2022/04/15 15:05:49;;;;;;;13.50;9.60;;;25.60;46.60;;;;;;4987570;28;20027;-81
2022/04/15 15:08:17;;;;;;;21.05;16.73;;;25.30;46.50;;;;;;4988096;28;20119;-83
2022/04/15 15:10:44;;;;;;;10.63;8.25;;;25.20;46.80;;;;;;4988864;28;20402;-81
2022/04/15 15:13:09;;;;;;;12.68;7.03;;;25.10;46.90;;;;;;4988154;28;20065;-81
2022/04/15 15:15:35;;;;;;;11.07;6.45;;;24.90;47.10;;;;;;4973562;28;20058;-78
2022/04/15 15:18:01;;;;;;;8.93;6.10;;;24.90;47.20;;;;;;4988645;28;20430;-82
2022/04/15 15:20:28;;;;;;;8.65;5.68;;;24.80;47.20;;;;;;5002090;28;20121;-84
2022/04/15 15:22:56;;;;;;;9.40;6.00;;;24.90;47.10;;;;;;4987057;28;20089;-83
2022/04/15 15:33:25;;;;;;;9.52;6.40;;;24.40;46.50;;;;;;5082048;27;1418200;-80
2022/04/15 15:35:52;;;;;;;7.32;5.07;;;24.20;47.30;;;;;;5094400;28;20020;-79
2022/04/15 15:38:25;;;;;;;8.70;5.07;;;23.90;47.50;;;;;;5100619;28;20024;-78
2022/04/15 15:40:52;;;;;;;6.85;5.15;;;23.40;48.50;;;;;;5082616;28;20016;-80
2022/04/15 15:43:19;;;;;;;8.88;6.50;;;23.50;48.80;;;;;;5089510;28;20039;-81
2022/04/15 15:45:45;;;;;;;13.00;8.60;;;23.80;48.20;;;;;;5086893;28;20016;-81
2022/04/15 15:48:12;;;;;;;8.55;5.78;;;24.00;48.30;;;;;;5075696;28;20051;-82
2022/04/15 15:50:42;;;;;;;10.50;5.43;;;24.30;48.00;;;;;;5079969;28;20020;-80
2022/04/15 15:55:57;;;;;;;7.75;5.38;;;24.40;48.10;;;;;;5099179;28;20491;-81
2022/04/15 15:58:23;;;;;;;11.60;5.88;;;24.50;47.60;;;;;;5071424;28;20460;-80
2022/04/15 16:04:17;;;;;;;20.25;16.90;;;24.20;48.30;;;;;;5103549;28;20035;-83
2022/04/15 16:06:43;;;;;;;17.33;12.63;;;24.40;48.00;;;;;;5077363;28;20035;-84
2022/04/15 16:09:08;;;;;;;12.52;8.15;;;24.90;48.00;;;;;;5073873;28;20047;-80
2022/04/15 16:11:35;;;;;;;8.63;5.70;;;24.80;47.20;;;;;;5075857;28;20131;-80
2022/04/15 16:14:00;;;;;;;9.50;5.43;;;24.90;47.40;;;;;;5080571;28;20027;-81
2022/04/15 16:16:26;;;;;;;7.60;5.00;;;25.00;47.00;;;;;;5091685;28;20035;-80
2022/04/15 16:18:52;;;;;;;9.65;5.55;;;25.20;47.10;;;;;;5109796;28;20024;-80
2022/04/15 16:21:18;;;;;;;10.27;5.28;;;25.40;46.90;;;;;;5109949;28;20027;-83
2022/04/15 16:23:44;;;;;;;7.80;5.35;;;25.30;46.90;;;;;;5083881;28;20020;-81
2022/04/15 16:26:10;;;;;;;8.13;5.28;;;25.10;46.70;;;;;;5052320;28;20082;-83
2022/04/15 16:28:36;;;;;;;7.80;5.50;;;24.90;46.90;;;;;;5051119;28;20029;-83